Admiral — WCY6529 — position and weather

sailwx.info

Track history (hours):
 
Tides and Currents Weather Stations Pressure Air Temp Water Temp Dewpoint Dewpoint Depression Visibility Wind Speed Wind Dir Waves Ship Positions

Admiral

Owner: Crowley Marine Services, SEATTLE, WA. More information available from US FCC via Universal Licensing System and Coast Guard Vessel Documentation Center.

Last reported at 2016-Aug-27 23:33 UTC. Time now 2016-Aug-28 00:27 UTC.
Position N 33°46' W 118°16'.

; draft 5.3 m.

Type: Tug. MMSI: 366755020.

Date/timePositionNaut miles runAvg speedWind from/ knotsBaromVisibWave heightAir tempDewpointWater temp
2016-Aug-27 23:33N 33°46' W 118°16'1 0.6
2016-Aug-27 22:17N 33°45' W 118°16'1 1.7
2016-Aug-27 21:33N 33°46' W 118°15'3 2.0
2016-Aug-27 20:17N 33°43' W 118°16'1 1.5
2016-Aug-27 19:25N 33°44' W 118°17'0 0.0
2016-Aug-27 18:33N 33°44' W 118°17'0 0.0
2016-Aug-27 17:27N 33°44' W 118°17'0 0.0
2016-Aug-27 16:26N 33°44' W 118°17'0 0.0
2016-Aug-27 15:27N 33°44' W 118°17'0 0.0
2016-Aug-27 14:33N 33°44' W 118°17'2 1.7
2016-Aug-27 13:33N 33°46' W 118°15'3 2.6
2016-Aug-27 12:26N 33°43' W 118°15'1 0.7
2016-Aug-27 11:23N 33°43' W 118°16'1 1.3
2016-Aug-27 10:33N 33°44' W 118°15'1 0.2
2016-Aug-27 01:30N 33°44' W 118°17'1 1.0
2016-Aug-27 00:33N 33°45' W 118°17'0 0.4
2016-Aug-26 23:32N 33°45' W 118°16'3 0.8
2016-Aug-26 20:13N 33°44' W 118°13'1 1.4
2016-Aug-26 19:19N 33°45' W 118°12'0 0.0
2016-Aug-26 17:33N 33°45' W 118°12'0 0.0
2016-Aug-26 14:19N 33°45' W 118°12'2 2.0
2016-Aug-26 13:27N 33°46' W 118°13'1 0.8
2016-Aug-26 12:26N 33°46' W 118°14'1 1.2
2016-Aug-26 11:33N 33°45' W 118°13'3 3.1
2016-Aug-26 10:32N 33°44' W 118°17'0 0.0
2016-Aug-26 09:33N 33°44' W 118°17'0 0.0
2016-Aug-26 08:33N 33°44' W 118°17'0 0.0
2016-Aug-26 07:33N 33°44' W 118°17'0 0.0
2016-Aug-26 06:33N 33°44' W 118°17'2 1.0
2016-Aug-26 04:33N 33°46' W 118°15'3 2.9
2016-Aug-26 03:33N 33°43' W 118°15'2 2.0
2016-Aug-26 02:25N 33°44' W 118°17'2 2.4
2016-Aug-26 01:33N 33°46' W 118°15'3 3.1
2016-Aug-26 00:33N 33°43' W 118°14'2 2.2
2016-Aug-25 23:33N 33°45' W 118°13'3 3.2
2016-Aug-25 22:31N 33°44' W 118°17'1 1.1
2016-Aug-25 21:33N 33°45' W 118°17'1 0.8
2016-Aug-25 20:22N 33°44' W 118°17'0 0.0
2016-Aug-25 19:32N 33°44' W 118°17'0 0.0
2016-Aug-25 17:33N 33°44' W 118°17'3 3.2
2016-Aug-25 16:34N 33°45' W 118°13'1 0.9
2016-Aug-25 15:33N 33°46' W 118°13'1 0.9
2016-Aug-25 14:31N 33°45' W 118°13'3 3.2
2016-Aug-25 13:33N 33°44' W 118°10'4 3.6
2016-Aug-25 12:33N 33°46' W 118°13'1 1.4
2016-Aug-25 11:33N 33°45' W 118°14'1 1.3
2016-Aug-25 10:33N 33°45' W 118°13'1 1.2
2016-Aug-25 09:34N 33°43' W 118°13'4 3.4
2016-Aug-25 08:31N 33°44' W 118°17'0 0.0
2016-Aug-25 07:34N 33°44' W 118°17'0 0.0
2016-Aug-25 06:29N 33°44' W 118°17'0 0.0
2016-Aug-25 04:33N 33°44' W 118°17'0 0.0
2016-Aug-25 03:34N 33°44' W 118°17'0 0.0
2016-Aug-25 02:34N 33°44' W 118°17'0 0.0
2016-Aug-25 01:33N 33°44' W 118°17'4 3.5
2016-Aug-25 00:33N 33°45' W 118°12'0 0.0
2016-Aug-24 23:33N 33°45' W 118°12'1 0.5
2016-Aug-24 22:33N 33°44' W 118°12'1 1.0
2016-Aug-24 21:33N 33°43' W 118°13'4 3.6
2016-Aug-24 20:33N 33°44' W 118°17'0 0.0
2016-Aug-24 19:30N 33°44' W 118°17'0 0.0
2016-Aug-24 18:32N 33°44' W 118°17'0 0.0
2016-Aug-24 17:33N 33°44' W 118°17'0 0.0
2016-Aug-24 16:34N 33°44' W 118°17'0 0.0
2016-Aug-24 15:33N 33°44' W 118°17'3 3.2
2016-Aug-24 14:33N 33°46' W 118°13'1 0.5
2016-Aug-24 13:32N 33°46' W 118°13'4 3.6
2016-Aug-24 12:33N 33°43' W 118°15'3 3.2
2016-Aug-24 11:33N 33°46' W 118°17'0 0.2
2016-Aug-24 10:34N 33°45' W 118°17'3 2.9
2016-Aug-24 09:34N 33°45' W 118°13'0 0.2
2016-Aug-24 08:34N 33°45' W 118°13'3 3.1
2016-Aug-24 07:33N 33°44' W 118°17'0 0.0
2016-Aug-24 06:34N 33°44' W 118°17'0 0.0
2016-Aug-24 04:34N 33°44' W 118°17'0 0.0
2016-Aug-24 03:33N 33°44' W 118°17'0 0.1
2016-Aug-24 02:33N 33°44' W 118°17'0 0.1
2016-Aug-24 01:34N 33°44' W 118°17'0 0.0
2016-Aug-24 00:33N 33°44' W 118°17'0 0.0
2016-Aug-23 23:33N 33°44' W 118°17'0 0.0
2016-Aug-23 22:33N 33°44' W 118°17'0 0.0
2016-Aug-23 21:34N 33°44' W 118°17'0 0.0
2016-Aug-23 20:34N 33°44' W 118°17'0 0.0
2016-Aug-23 19:33N 33°44' W 118°17'0 0.0
2016-Aug-23 18:31N 33°44' W 118°17'0 0.0
2016-Aug-23 17:33N 33°44' W 118°17'0 0.0
2016-Aug-23 16:33N 33°44' W 118°17'0 0.5
2016-Aug-23 15:33N 33°44' W 118°17'5 4.7
2016-Aug-23 14:33N 33°44' W 118°11'2 1.7
2016-Aug-23 13:33N 33°44' W 118°13'1 0.6
2016-Aug-23 12:34N 33°44' W 118°12'1 0.7
2016-Aug-23 11:33N 33°44' W 118°13'2 2.5
2016-Aug-23 10:34N 33°46' W 118°13'1 1.3
2016-Aug-23 09:34N 33°45' W 118°13'3 3.1
2016-Aug-23 08:34N 33°44' W 118°17'0 0.0
2016-Aug-23 07:33N 33°44' W 118°17'0 0.0
2016-Aug-23 06:20N 33°44' W 118°17'0 0.0
2016-Aug-23 05:33N 33°44' W 118°17'1 1.0
2016-Aug-23 04:33N 33°45' W 118°17'2 2.0
2016-Aug-23 03:34N 33°43' W 118°16'1 0.5
2016-Aug-23 02:34N 33°43' W 118°16'1 0.9
2016-Aug-23 01:34N 33°44' W 118°15'0 0.2
2016-Aug-23 00:33N 33°44' W 118°16'3 2.8
2016-Aug-22 23:34N 33°42' W 118°14'2 1.5
2016-Aug-22 22:33N 33°43' W 118°14'3 3.2
2016-Aug-22 21:34N 33°46' W 118°14'1 1.3
2016-Aug-22 20:33N 33°45' W 118°13'2 2.1
2016-Aug-22 19:34N 33°43' W 118°14'3 2.7
2016-Aug-22 18:33N 33°44' W 118°17'0 0.0
2016-Aug-22 17:30N 33°44' W 118°17'0 0.0
2016-Aug-22 16:34N 33°44' W 118°17'0 0.0
2016-Aug-22 15:34N 33°44' W 118°17'0 0.0
2016-Aug-22 14:33N 33°44' W 118°17'1 1.3
2016-Aug-22 13:34N 33°43' W 118°16'1 1.0
2016-Aug-22 12:33N 33°43' W 118°15'2 2.3
2016-Aug-22 11:34N 33°44' W 118°17'0 0.0
2016-Aug-22 10:33N 33°44' W 118°17'0 0.5
2016-Aug-22 09:33N 33°44' W 118°17'3 3.2
2016-Aug-22 08:34N 33°45' W 118°13'1 0.7
2016-Aug-22 07:33N 33°45' W 118°13'2 2.3
2016-Aug-22 06:34N 33°44' W 118°11'2 2.3
2016-Aug-22 05:33N 33°45' W 118°13'1 1.0
2016-Aug-22 04:34N 33°44' W 118°12'2 2.2
2016-Aug-22 03:34N 33°42' W 118°11'5 4.8
2016-Aug-22 02:34N 33°44' W 118°16'1 0.6
2016-Aug-22 01:34N 33°44' W 118°17'3 3.1
2016-Aug-22 00:34N 33°45' W 118°13'1 0.9
2016-Aug-21 23:33N 33°46' W 118°13'2 2.0
2016-Aug-21 22:33N 33°44' W 118°12'0 0.1
2016-Aug-21 21:34N 33°44' W 118°12'3 3.5
2016-Aug-21 20:34N 33°44' W 118°17'0 0.0
2016-Aug-21 19:34N 33°44' W 118°17'0 0.0
2016-Aug-21 18:33N 33°44' W 118°17'0 0.0
2016-Aug-21 17:33N 33°44' W 118°17'0 0.0
2016-Aug-21 16:33N 33°44' W 118°17'0 0.0
2016-Aug-21 15:34N 33°44' W 118°17'2 1.7
2016-Aug-21 14:34N 33°46' W 118°16'2 2.0
2016-Aug-21 13:33N 33°44' W 118°16'2 2.4
2016-Aug-21 12:34N 33°43' W 118°14'3 2.7
2016-Aug-21 11:33N 33°44' W 118°17'0 0.0
2016-Aug-21 10:33N 33°44' W 118°17'0 0.0
2016-Aug-21 09:33N 33°44' W 118°17'0 0.0
2016-Aug-21 08:34N 33°44' W 118°17'0 0.0
2016-Aug-21 07:33N 33°44' W 118°17'0 0.0
2016-Aug-21 06:33N 33°44' W 118°17'0 0.0
2016-Aug-21 05:33N 33°44' W 118°17'0 0.0
2016-Aug-21 04:33N 33°44' W 118°17'1 0.5
2016-Aug-21 03:33N 33°44' W 118°16'3 3.4
2016-Aug-21 02:33N 33°45' W 118°12'2 2.1
2016-Aug-21 01:34N 33°44' W 118°10'2 2.5
2016-Aug-21 00:34N 33°45' W 118°13'0 0.0
2016-Aug-20 23:33N 33°45' W 118°13'0 0.0
2016-Aug-20 22:33N 33°45' W 118°13'3 3.2
2016-Aug-20 21:34N 33°44' W 118°17'0 0.0
2016-Aug-20 20:33N 33°44' W 118°17'0 0.0
2016-Aug-20 19:33N 33°44' W 118°17'0 0.0
2016-Aug-20 18:30N 33°44' W 118°17'0 0.0
2016-Aug-20 17:32N 33°44' W 118°17'3 3.2
2016-Aug-20 16:33N 33°46' W 118°13'1 0.9
2016-Aug-20 15:34N 33°45' W 118°13'2 2.2
2016-Aug-20 14:33N 33°43' W 118°11'1 0.7
2016-Aug-20 13:33N 33°43' W 118°12'3 3.3
2016-Aug-20 12:33N 33°44' W 118°16'1 0.6
2016-Aug-20 11:33N 33°43' W 118°16'1 1.2
2016-Aug-20 10:27N 33°44' W 118°17'2 1.8
2016-Aug-20 09:33N 33°46' W 118°16'2 1.5
2016-Aug-20 08:30N 33°44' W 118°17'0 0.0
2016-Aug-20 07:34N 33°44' W 118°17'0 0.0
2016-Aug-20 06:34N 33°44' W 118°17'2 2.4
2016-Aug-20 05:33N 33°46' W 118°14'3 2.7
2016-Aug-20 04:33N 33°44' W 118°16'0 0.0
2016-Aug-20 03:33N 33°44' W 118°16'1 0.7
2016-Aug-20 02:33N 33°44' W 118°17'0 0.0
2016-Aug-20 01:34N 33°44' W 118°17'0 0.0
2016-Aug-20 00:34N 33°44' W 118°17'0 0.0
2016-Aug-19 23:33N 33°44' W 118°17'0 0.0
2016-Aug-19 22:33N 33°44' W 118°17'1 1.4
2016-Aug-19 21:34N 33°43' W 118°16'4 3.7
2016-Aug-19 20:34N 33°46' W 118°13'0 0.0
2016-Aug-19 19:34N 33°46' W 118°13'4 3.7
2016-Aug-19 18:33N 33°43' W 118°15'2 2.0
2016-Aug-19 17:34N 33°44' W 118°17'0 0.0
2016-Aug-19 16:33N 33°44' W 118°17'0 0.0
2016-Aug-19 15:34N 33°44' W 118°17'0 0.0
2016-Aug-19 14:34N 33°44' W 118°17'0 0.0
2016-Aug-19 13:33N 33°44' W 118°17'0 0.0
2016-Aug-19 12:34N 33°44' W 118°17'0 0.0
2016-Aug-19 11:33N 33°44' W 118°17'0 0.0
2016-Aug-19 10:34N 33°44' W 118°17'0 0.0
2016-Aug-19 09:33N 33°44' W 118°17'0 0.0
2016-Aug-19 08:33N 33°44' W 118°17'2 1.6
2016-Aug-19 07:34N 33°43' W 118°16'3 3.2
2016-Aug-19 06:33N 33°45' W 118°12'0 0.4
2016-Aug-19 05:34N 33°45' W 118°13'1 0.5
2016-Aug-19 04:33N 33°45' W 118°13'1 0.8
2016-Aug-19 03:33N 33°45' W 118°13'3 2.9
2016-Aug-19 02:33N 33°44' W 118°10'5 4.9
2016-Aug-19 01:33N 33°44' W 118°16'0 0.2
2016-Aug-19 00:34N 33°44' W 118°16'0 0.5
2016-Aug-18 23:33N 33°43' W 118°16'1 1.1
2016-Aug-18 22:34N 33°44' W 118°17'0 0.0
2016-Aug-18 21:33N 33°44' W 118°17'0 0.0
2016-Aug-18 20:34N 33°44' W 118°17'0 0.0
2016-Aug-18 19:34N 33°44' W 118°17'0 0.0
2016-Aug-18 18:34N 33°44' W 118°17'0 0.0
2016-Aug-18 17:33N 33°44' W 118°17'1 0.6
2016-Aug-18 16:31N 33°44' W 118°16'0 0.0
2016-Aug-18 15:33N 33°44' W 118°16'4 3.9
2016-Aug-18 14:33N 33°45' W 118°12'1 1.0
2016-Aug-18 13:34N 33°44' W 118°12'1 0.7
2016-Aug-18 12:34N 33°44' W 118°12'3 3.1
2016-Aug-18 11:34N 33°44' W 118°15'1 1.1
2016-Aug-18 10:34N 33°43' W 118°14'2 2.4
2016-Aug-18 09:33N 33°45' W 118°12'2 2.1
2016-Aug-18 08:34N 33°44' W 118°10'6 5.6
2016-Aug-18 07:34N 33°44' W 118°17'0 0.0
2016-Aug-18 06:34N 33°44' W 118°17'0 0.0
2016-Aug-18 05:34N 33°44' W 118°17'0 0.0
2016-Aug-18 04:34N 33°44' W 118°17'0 0.0
2016-Aug-18 03:33N 33°44' W 118°17'0 0.0
2016-Aug-18 02:27N 33°44' W 118°17'0 0.1
2016-Aug-18 01:33N 33°45' W 118°17'1 1.3
2016-Aug-18 00:34N 33°46' W 118°16'  
Track history (hours):
 
Tides and Currents Weather Stations Pressure Air Temp Water Temp Dewpoint Dewpoint Depression Visibility Wind Speed Wind Dir Waves Ship Positions

Admiral

Owner: Crowley Marine Services, SEATTLE, WA. More information available from US FCC via Universal Licensing System and Coast Guard Vessel Documentation Center.

Last reported at 2016-Aug-27 23:33 UTC. Time now 2016-Aug-28 00:27 UTC.
Position N 33°46' W 118°16'.

; draft 5.3 m.

Type: Tug. MMSI: 366755020.

Date/timePositionNaut miles runAvg speedWind from/ knotsBaromVisibWave heightAir tempDewpointWater temp
2016-Aug-27 23:33N 33°46' W 118°16'1 0.6
2016-Aug-27 22:17N 33°45' W 118°16'1 1.7
2016-Aug-27 21:33N 33°46' W 118°15'3 2.0
2016-Aug-27 20:17N 33°43' W 118°16'1 1.5
2016-Aug-27 19:25N 33°44' W 118°17'0 0.0
2016-Aug-27 18:33N 33°44' W 118°17'0 0.0
2016-Aug-27 17:27N 33°44' W 118°17'0 0.0
2016-Aug-27 16:26N 33°44' W 118°17'0 0.0
2016-Aug-27 15:27N 33°44' W 118°17'0 0.0
2016-Aug-27 14:33N 33°44' W 118°17'2 1.7
2016-Aug-27 13:33N 33°46' W 118°15'3 2.6
2016-Aug-27 12:26N 33°43' W 118°15'1 0.7
2016-Aug-27 11:23N 33°43' W 118°16'1 1.3
2016-Aug-27 10:33N 33°44' W 118°15'1 0.2
2016-Aug-27 01:30N 33°44' W 118°17'1 1.0
2016-Aug-27 00:33N 33°45' W 118°17'0 0.4
2016-Aug-26 23:32N 33°45' W 118°16'3 0.8
2016-Aug-26 20:13N 33°44' W 118°13'1 1.4
2016-Aug-26 19:19N 33°45' W 118°12'0 0.0
2016-Aug-26 17:33N 33°45' W 118°12'0 0.0
2016-Aug-26 14:19N 33°45' W 118°12'2 2.0
2016-Aug-26 13:27N 33°46' W 118°13'1 0.8
2016-Aug-26 12:26N 33°46' W 118°14'1 1.2
2016-Aug-26 11:33N 33°45' W 118°13'3 3.1
2016-Aug-26 10:32N 33°44' W 118°17'0 0.0
2016-Aug-26 09:33N 33°44' W 118°17'0 0.0
2016-Aug-26 08:33N 33°44' W 118°17'0 0.0
2016-Aug-26 07:33N 33°44' W 118°17'0 0.0
2016-Aug-26 06:33N 33°44' W 118°17'2 1.0
2016-Aug-26 04:33N 33°46' W 118°15'3 2.9
2016-Aug-26 03:33N 33°43' W 118°15'2 2.0
2016-Aug-26 02:25N 33°44' W 118°17'2 2.4
2016-Aug-26 01:33N 33°46' W 118°15'3 3.1
2016-Aug-26 00:33N 33°43' W 118°14'2 2.2
2016-Aug-25 23:33N 33°45' W 118°13'3 3.2
2016-Aug-25 22:31N 33°44' W 118°17'1 1.1
2016-Aug-25 21:33N 33°45' W 118°17'1 0.8
2016-Aug-25 20:22N 33°44' W 118°17'0 0.0
2016-Aug-25 19:32N 33°44' W 118°17'0 0.0
2016-Aug-25 17:33N 33°44' W 118°17'3 3.2
2016-Aug-25 16:34N 33°45' W 118°13'1 0.9
2016-Aug-25 15:33N 33°46' W 118°13'1 0.9
2016-Aug-25 14:31N 33°45' W 118°13'3 3.2
2016-Aug-25 13:33N 33°44' W 118°10'4 3.6
2016-Aug-25 12:33N 33°46' W 118°13'1 1.4
2016-Aug-25 11:33N 33°45' W 118°14'1 1.3
2016-Aug-25 10:33N 33°45' W 118°13'1 1.2
2016-Aug-25 09:34N 33°43' W 118°13'4 3.4
2016-Aug-25 08:31N 33°44' W 118°17'0 0.0
2016-Aug-25 07:34N 33°44' W 118°17'0 0.0
2016-Aug-25 06:29N 33°44' W 118°17'0 0.0
2016-Aug-25 04:33N 33°44' W 118°17'0 0.0
2016-Aug-25 03:34N 33°44' W 118°17'0 0.0
2016-Aug-25 02:34N 33°44' W 118°17'0 0.0
2016-Aug-25 01:33N 33°44' W 118°17'4 3.5
2016-Aug-25 00:33N 33°45' W 118°12'0 0.0
2016-Aug-24 23:33N 33°45' W 118°12'1 0.5
2016-Aug-24 22:33N 33°44' W 118°12'1 1.0
2016-Aug-24 21:33N 33°43' W 118°13'4 3.6
2016-Aug-24 20:33N 33°44' W 118°17'0 0.0
2016-Aug-24 19:30N 33°44' W 118°17'0 0.0
2016-Aug-24 18:32N 33°44' W 118°17'0 0.0
2016-Aug-24 17:33N 33°44' W 118°17'0 0.0
2016-Aug-24 16:34N 33°44' W 118°17'0 0.0
2016-Aug-24 15:33N 33°44' W 118°17'3 3.2
2016-Aug-24 14:33N 33°46' W 118°13'1 0.5
2016-Aug-24 13:32N 33°46' W 118°13'4 3.6
2016-Aug-24 12:33N 33°43' W 118°15'3 3.2
2016-Aug-24 11:33N 33°46' W 118°17'0 0.2
2016-Aug-24 10:34N 33°45' W 118°17'3 2.9
2016-Aug-24 09:34N 33°45' W 118°13'0 0.2
2016-Aug-24 08:34N 33°45' W 118°13'3 3.1
2016-Aug-24 07:33N 33°44' W 118°17'0 0.0
2016-Aug-24 06:34N 33°44' W 118°17'0 0.0
2016-Aug-24 04:34N 33°44' W 118°17'0 0.0
2016-Aug-24 03:33N 33°44' W 118°17'0 0.1
2016-Aug-24 02:33N 33°44' W 118°17'0 0.1
2016-Aug-24 01:34N 33°44' W 118°17'0 0.0
2016-Aug-24 00:33N 33°44' W 118°17'0 0.0
2016-Aug-23 23:33N 33°44' W 118°17'0 0.0
2016-Aug-23 22:33N 33°44' W 118°17'0 0.0
2016-Aug-23 21:34N 33°44' W 118°17'0 0.0
2016-Aug-23 20:34N 33°44' W 118°17'0 0.0
2016-Aug-23 19:33N 33°44' W 118°17'0 0.0
2016-Aug-23 18:31N 33°44' W 118°17'0 0.0
2016-Aug-23 17:33N 33°44' W 118°17'0 0.0
2016-Aug-23 16:33N 33°44' W 118°17'0 0.5
2016-Aug-23 15:33N 33°44' W 118°17'5 4.7
2016-Aug-23 14:33N 33°44' W 118°11'2 1.7
2016-Aug-23 13:33N 33°44' W 118°13'1 0.6
2016-Aug-23 12:34N 33°44' W 118°12'1 0.7
2016-Aug-23 11:33N 33°44' W 118°13'2 2.5
2016-Aug-23 10:34N 33°46' W 118°13'1 1.3
2016-Aug-23 09:34N 33°45' W 118°13'3 3.1
2016-Aug-23 08:34N 33°44' W 118°17'0 0.0
2016-Aug-23 07:33N 33°44' W 118°17'0 0.0
2016-Aug-23 06:20N 33°44' W 118°17'0 0.0
2016-Aug-23 05:33N 33°44' W 118°17'1 1.0
2016-Aug-23 04:33N 33°45' W 118°17'2 2.0
2016-Aug-23 03:34N 33°43' W 118°16'1 0.5
2016-Aug-23 02:34N 33°43' W 118°16'1 0.9
2016-Aug-23 01:34N 33°44' W 118°15'0 0.2
2016-Aug-23 00:33N 33°44' W 118°16'3 2.8
2016-Aug-22 23:34N 33°42' W 118°14'2 1.5
2016-Aug-22 22:33N 33°43' W 118°14'3 3.2
2016-Aug-22 21:34N 33°46' W 118°14'1 1.3
2016-Aug-22 20:33N 33°45' W 118°13'2 2.1
2016-Aug-22 19:34N 33°43' W 118°14'3 2.7
2016-Aug-22 18:33N 33°44' W 118°17'0 0.0
2016-Aug-22 17:30N 33°44' W 118°17'0 0.0
2016-Aug-22 16:34N 33°44' W 118°17'0 0.0
2016-Aug-22 15:34N 33°44' W 118°17'0 0.0
2016-Aug-22 14:33N 33°44' W 118°17'1 1.3
2016-Aug-22 13:34N 33°43' W 118°16'1 1.0
2016-Aug-22 12:33N 33°43' W 118°15'2 2.3
2016-Aug-22 11:34N 33°44' W 118°17'0 0.0
2016-Aug-22 10:33N 33°44' W 118°17'0 0.5
2016-Aug-22 09:33N 33°44' W 118°17'3 3.2
2016-Aug-22 08:34N 33°45' W 118°13'1 0.7
2016-Aug-22 07:33N 33°45' W 118°13'2 2.3
2016-Aug-22 06:34N 33°44' W 118°11'2 2.3
2016-Aug-22 05:33N 33°45' W 118°13'1 1.0
2016-Aug-22 04:34N 33°44' W 118°12'2 2.2
2016-Aug-22 03:34N 33°42' W 118°11'5 4.8
2016-Aug-22 02:34N 33°44' W 118°16'1 0.6
2016-Aug-22 01:34N 33°44' W 118°17'3 3.1
2016-Aug-22 00:34N 33°45' W 118°13'1 0.9
2016-Aug-21 23:33N 33°46' W 118°13'2 2.0
2016-Aug-21 22:33N 33°44' W 118°12'0 0.1
2016-Aug-21 21:34N 33°44' W 118°12'3 3.5
2016-Aug-21 20:34N 33°44' W 118°17'0 0.0
2016-Aug-21 19:34N 33°44' W 118°17'0 0.0
2016-Aug-21 18:33N 33°44' W 118°17'0 0.0
2016-Aug-21 17:33N 33°44' W 118°17'0 0.0
2016-Aug-21 16:33N 33°44' W 118°17'0 0.0
2016-Aug-21 15:34N 33°44' W 118°17'2 1.7
2016-Aug-21 14:34N 33°46' W 118°16'2 2.0
2016-Aug-21 13:33N 33°44' W 118°16'2 2.4
2016-Aug-21 12:34N 33°43' W 118°14'3 2.7
2016-Aug-21 11:33N 33°44' W 118°17'0 0.0
2016-Aug-21 10:33N 33°44' W 118°17'0 0.0
2016-Aug-21 09:33N 33°44' W 118°17'0 0.0
2016-Aug-21 08:34N 33°44' W 118°17'0 0.0
2016-Aug-21 07:33N 33°44' W 118°17'0 0.0
2016-Aug-21 06:33N 33°44' W 118°17'0 0.0
2016-Aug-21 05:33N 33°44' W 118°17'0 0.0
2016-Aug-21 04:33N 33°44' W 118°17'1 0.5
2016-Aug-21 03:33N 33°44' W 118°16'3 3.4
2016-Aug-21 02:33N 33°45' W 118°12'2 2.1
2016-Aug-21 01:34N 33°44' W 118°10'2 2.5
2016-Aug-21 00:34N 33°45' W 118°13'0 0.0
2016-Aug-20 23:33N 33°45' W 118°13'0 0.0
2016-Aug-20 22:33N 33°45' W 118°13'3 3.2
2016-Aug-20 21:34N 33°44' W 118°17'0 0.0
2016-Aug-20 20:33N 33°44' W 118°17'0 0.0
2016-Aug-20 19:33N 33°44' W 118°17'0 0.0
2016-Aug-20 18:30N 33°44' W 118°17'0 0.0
2016-Aug-20 17:32N 33°44' W 118°17'3 3.2
2016-Aug-20 16:33N 33°46' W 118°13'1 0.9
2016-Aug-20 15:34N 33°45' W 118°13'2 2.2
2016-Aug-20 14:33N 33°43' W 118°11'1 0.7
2016-Aug-20 13:33N 33°43' W 118°12'3 3.3
2016-Aug-20 12:33N 33°44' W 118°16'1 0.6
2016-Aug-20 11:33N 33°43' W 118°16'1 1.2
2016-Aug-20 10:27N 33°44' W 118°17'2 1.8
2016-Aug-20 09:33N 33°46' W 118°16'2 1.5
2016-Aug-20 08:30N 33°44' W 118°17'0 0.0
2016-Aug-20 07:34N 33°44' W 118°17'0 0.0
2016-Aug-20 06:34N 33°44' W 118°17'2 2.4
2016-Aug-20 05:33N 33°46' W 118°14'3 2.7
2016-Aug-20 04:33N 33°44' W 118°16'0 0.0
2016-Aug-20 03:33N 33°44' W 118°16'1 0.7
2016-Aug-20 02:33N 33°44' W 118°17'0 0.0
2016-Aug-20 01:34N 33°44' W 118°17'0 0.0
2016-Aug-20 00:34N 33°44' W 118°17'0 0.0
2016-Aug-19 23:33N 33°44' W 118°17'0 0.0
2016-Aug-19 22:33N 33°44' W 118°17'1 1.4
2016-Aug-19 21:34N 33°43' W 118°16'4 3.7
2016-Aug-19 20:34N 33°46' W 118°13'0 0.0
2016-Aug-19 19:34N 33°46' W 118°13'4 3.7
2016-Aug-19 18:33N 33°43' W 118°15'2 2.0
2016-Aug-19 17:34N 33°44' W 118°17'0 0.0
2016-Aug-19 16:33N 33°44' W 118°17'0 0.0
2016-Aug-19 15:34N 33°44' W 118°17'0 0.0
2016-Aug-19 14:34N 33°44' W 118°17'0 0.0
2016-Aug-19 13:33N 33°44' W 118°17'0 0.0
2016-Aug-19 12:34N 33°44' W 118°17'0 0.0
2016-Aug-19 11:33N 33°44' W 118°17'0 0.0
2016-Aug-19 10:34N 33°44' W 118°17'0 0.0
2016-Aug-19 09:33N 33°44' W 118°17'0 0.0
2016-Aug-19 08:33N 33°44' W 118°17'2 1.6
2016-Aug-19 07:34N 33°43' W 118°16'3 3.2
2016-Aug-19 06:33N 33°45' W 118°12'0 0.4
2016-Aug-19 05:34N 33°45' W 118°13'1 0.5
2016-Aug-19 04:33N 33°45' W 118°13'1 0.8
2016-Aug-19 03:33N 33°45' W 118°13'3 2.9
2016-Aug-19 02:33N 33°44' W 118°10'5 4.9
2016-Aug-19 01:33N 33°44' W 118°16'0 0.2
2016-Aug-19 00:34N 33°44' W 118°16'0 0.5
2016-Aug-18 23:33N 33°43' W 118°16'1 1.1
2016-Aug-18 22:34N 33°44' W 118°17'0 0.0
2016-Aug-18 21:33N 33°44' W 118°17'0 0.0
2016-Aug-18 20:34N 33°44' W 118°17'0 0.0
2016-Aug-18 19:34N 33°44' W 118°17'0 0.0
2016-Aug-18 18:34N 33°44' W 118°17'0 0.0
2016-Aug-18 17:33N 33°44' W 118°17'1 0.6
2016-Aug-18 16:31N 33°44' W 118°16'0 0.0
2016-Aug-18 15:33N 33°44' W 118°16'4 3.9
2016-Aug-18 14:33N 33°45' W 118°12'1 1.0
2016-Aug-18 13:34N 33°44' W 118°12'1 0.7
2016-Aug-18 12:34N 33°44' W 118°12'3 3.1
2016-Aug-18 11:34N 33°44' W 118°15'1 1.1
2016-Aug-18 10:34N 33°43' W 118°14'2 2.4
2016-Aug-18 09:33N 33°45' W 118°12'2 2.1
2016-Aug-18 08:34N 33°44' W 118°10'6 5.6
2016-Aug-18 07:34N 33°44' W 118°17'0 0.0
2016-Aug-18 06:34N 33°44' W 118°17'0 0.0
2016-Aug-18 05:34N 33°44' W 118°17'0 0.0
2016-Aug-18 04:34N 33°44' W 118°17'0 0.0
2016-Aug-18 03:33N 33°44' W 118°17'0 0.0
2016-Aug-18 02:27N 33°44' W 118°17'0 0.1
2016-Aug-18 01:33N 33°45' W 118°17'1 1.3
2016-Aug-18 00:34N 33°46' W 118°16'  

Dump ship's entire track history